Report METAR

 

KSJC - San Jose, California, USA
Distance from station: NE 14km
Dati ricevuti: 24/02/2020 23:53
Sereno
Sereno
 Vento da NO
Vento: NO 20 km/h
Temperatura: 21°C
P.to Rugiada: 4°C
Umidità: 33%
Barometro: 1025.7 hPa
Nuvole: Sereno
Visibility: 16 km
2020/02/24 22:53 KSJC 242253Z 32011KT 10SM CLR 21/04 A3029 RMK AO2 SLP255 T02060044
KNUQ - Moffett Nas/Mtn, California, USA
Distance from station: N 14km
Dati ricevuti: 21/11/2019 17:56
DATI Obsoleti

 
Barometro: 1011.2 hPa
2019/11/21 16:56 KNUQ 211656Z AUTO A2986 RMK AO2 SLP116 PWINO $
 
KPAO - Palo Alto, California, USA
Distance from station: NNO 23km
Dati ricevuti: 24/02/2020 23:47
Sereno
Sereno
 Vento da NNO
Vento: NNO 15 km/h
Temperatura: 21°C
P.to Rugiada: 4°C
Umidità: 33%
Barometro: 1026.1 hPa
Nuvole: Sereno
Visibility: 16 km
2020/02/24 22:47 KPAO 242247Z 34008KT 10SM SKC 21/04 A3030
KRHV - San Jose/Reid, California, USA
Distance from station: ENE 19km
Dati ricevuti: 24/02/2020 23:50
Sereno
Sereno
 Vento da NNO
Vento: NNO 13 km/h
Temperatura: 19°C
P.to Rugiada: 8°C
Umidità: 49%
Barometro: 1025.7 hPa
Nuvole: Sereno
Visibility: 16 km
2020/02/24 22:50 KRHV 242250Z 33007KT 10SM SKC 19/08 A3029
 
KOAK - Oakland, California, USA
Distance from station: NNO 50km
Dati ricevuti: 24/02/2020 23:53
Sereno
Sereno
 Vento da O
Vento: O 15 km/h
Temperatura: 19°C
P.to Rugiada: 8°C
Umidità: 49%
Barometro: 1026.1 hPa
Nuvole: Sereno
Visibility: 16 km
2020/02/24 22:53 KOAK 242253Z 27008KT 10SM CLR 19/08 A3030 RMK AO2 SLP261 T01940078
KSQL - San Carlos Airpo, California, USA
Distance from station: NO 34km
Dati ricevuti: 24/02/2020 22:52
DATI Obsoleti
Sereno
Sereno
 Vento da calmo
Vento: Calma
Temperatura: 19°C
P.to Rugiada: 5°C
Umidità: 40%
Barometro: 1026.8 hPa
Nuvole: Sereno
Visibility: 16 km
2020/02/24 21:52 KSQL 242152Z 00000KT 10SM SKC 19/05 A3032
 
KSFO - San Francisco, California, USA
Distance from station: NO 49km
Dati ricevuti: 24/02/2020 23:56
Sereno
Sereno
 Vento da O
Vento: O 26 km/h
Temperatura: 18°C
P.to Rugiada: 7°C
Umidità: 49%
Barometro: 1026.1 hPa
Nuvole: Sereno
Visibility: 16 km
2020/02/24 22:56 KSFO 242256Z 28014KT 10SM CLR 18/07 A3030 RMK AO2 SLP259 T01830067
KE16 - San Martin, California, USA
Distance from station: ESE 43km
Dati ricevuti: 14/11/2019 10:35
DATI Obsoleti
Coperto
Coperto
 Vento da SE
Vento: SE 11 km/h
Temperatura: 12°C
P.to Rugiada: 10°C
Umidità: 88%
Barometro: 1017.6 hPa
Nuvole: Coperto
Visibility: 16 km
Cloud details: Coperto 427 m
2019/11/14 09:35 KE16 140935Z AUTO 13006KT 10SM OVC014 12/10 A3005 RMK AO2
 
KWVI - Watsonville, California, USA
Distance from station: SSE 44km
Dati ricevuti: 24/02/2020 23:53
Sereno
Sereno
 Vento da SO
Vento: SO 9 km/h
Temperatura: 19°C
P.to Rugiada: 9°C
Umidità: 52%
Barometro: 1025.4 hPa
Nuvole: Sereno
Visibility: 16 km
2020/02/24 22:53 KWVI 242253Z AUTO 23005KT 10SM CLR 19/09 A3028 RMK AO2 SLP252 T01890094
KHAF - Half Moon Bay, California, USA
Distance from station: ONO 50km
Dati ricevuti: 22/02/2020 19:00
DATI Obsoleti

 
2020/02/22 18:00 KHAF 221800Z AUTO RMK AO2 PWINO
 
KHWD - Hayward, California, USA
Distance from station: N 44km
Dati ricevuti: 24/02/2020 23:54
Sereno
Sereno
 Vento da O
Vento: O 11 km/h
Temperatura: 18°C
P.to Rugiada: 6°C
Umidità: 46%
Barometro: 1025.7 hPa
Nuvole: Sereno
Visibility: 16 km
2020/02/24 22:54 KHWD 242254Z 26006KT 10SM CLR 18/06 A3029 RMK AO2 SLP267 T01830061
KLVK - Livermore, California, USA
Distance from station: NNE 51km
Dati ricevuti: 24/02/2020 23:53
Sereno
Sereno
 Vento da NNO
Vento: NNO 17 km/h
Temperatura: 23°C
P.to Rugiada: -7°C
Umidità: 13%
Barometro: 1025.4 hPa
Nuvole: Sereno
Visibility: 16 km
2020/02/24 22:53 KLVK 242253Z 34009KT 10SM CLR 23/M07 A3028 RMK AO2 SLP250 T02281067 $